sensor_id;sensor_type;location;lat;lon;timestamp;pressure;altitude;pressure_sealevel;temperature;humidity
48862;BME280;34681;49.188;-0.374;2022-12-04T00:00:12;101154.59;;;3.78;nan
48862;BME280;34681;49.188;-0.374;2022-12-04T00:02:38;101138.59;;;4.17;nan
48862;BME280;34681;49.188;-0.374;2022-12-04T00:05:05;101150.22;;;4.48;nan
48862;BME280;34681;49.188;-0.374;2022-12-04T00:07:31;101145.91;;;3.87;nan
48862;BME280;34681;49.188;-0.374;2022-12-04T00:09:56;101149.09;;;3.93;nan
48862;BME280;34681;49.188;-0.374;2022-12-04T00:12:22;101144.78;;;4.34;nan
48862;BME280;34681;49.188;-0.374;2022-12-04T00:14:47;101145.06;;;4.29;nan
48862;BME280;34681;49.188;-0.374;2022-12-04T00:17:13;101145.53;;;4.64;nan
48862;BME280;34681;49.188;-0.374;2022-12-04T00:19:38;101143.06;;;4.47;nan
48862;BME280;34681;49.188;-0.374;2022-12-04T00:22:04;101133.63;;;3.81;nan
48862;BME280;34681;49.188;-0.374;2022-12-04T00:24:29;101139.38;;;3.61;nan
48862;BME280;34681;49.188;-0.374;2022-12-04T00:26:55;101138.78;;;3.26;nan
48862;BME280;34681;49.188;-0.374;2022-12-04T00:29:20;101129.34;;;3.33;nan
48862;BME280;34681;49.188;-0.374;2022-12-04T00:31:46;101135.13;;;3.11;nan
48862;BME280;34681;49.188;-0.374;2022-12-04T00:34:11;101136.88;;;3.12;nan
48862;BME280;34681;49.188;-0.374;2022-12-04T00:36:37;101140.69;;;3.40;nan
48862;BME280;34681;49.188;-0.374;2022-12-04T00:39:03;101141.72;;;3.37;nan
48862;BME280;34681;49.188;-0.374;2022-12-04T00:41:30;101145.47;;;3.34;nan
48862;BME280;34681;49.188;-0.374;2022-12-04T00:43:57;101144.19;;;3.26;nan
48862;BME280;34681;49.188;-0.374;2022-12-04T00:46:23;101145.13;;;3.41;nan
48862;BME280;34681;49.188;-0.374;2022-12-04T00:48:49;101146.47;;;3.78;nan
48862;BME280;34681;49.188;-0.374;2022-12-04T00:51:18;101146.59;;;4.05;nan
48862;BME280;34681;49.188;-0.374;2022-12-04T00:53:44;101135.28;;;3.84;nan
48862;BME280;34681;49.188;-0.374;2022-12-04T00:56:15;101141.72;;;3.37;nan
48862;BME280;34681;49.188;-0.374;2022-12-04T00:58:41;101135.38;;;3.52;nan
48862;BME280;34681;49.188;-0.374;2022-12-04T01:01:10;101135.50;;;3.51;nan
48862;BME280;34681;49.188;-0.374;2022-12-04T01:03:36;101133.94;;;3.31;nan
48862;BME280;34681;49.188;-0.374;2022-12-04T01:06:02;101143.81;;;3.48;nan
48862;BME280;34681;49.188;-0.374;2022-12-04T01:08:28;101144.22;;;3.56;nan
48862;BME280;34681;49.188;-0.374;2022-12-04T01:10:54;101134.38;;;3.69;nan
48862;BME280;34681;49.188;-0.374;2022-12-04T01:13:19;101138.03;;;3.68;nan
48862;BME280;34681;49.188;-0.374;2022-12-04T01:15:45;101134.53;;;3.52;nan
48862;BME280;34681;49.188;-0.374;2022-12-04T01:18:12;101129.78;;;3.55;nan
48862;BME280;34681;49.188;-0.374;2022-12-04T01:20:38;101129.66;;;3.43;nan
48862;BME280;34681;49.188;-0.374;2022-12-04T01:23:04;101133.72;;;3.20;nan
48862;BME280;34681;49.188;-0.374;2022-12-04T01:25:29;101140.34;;;3.14;nan
48862;BME280;34681;49.188;-0.374;2022-12-04T01:27:54;101140.00;;;3.20;nan
48862;BME280;34681;49.188;-0.374;2022-12-04T01:30:20;101140.97;;;3.19;nan
48862;BME280;34681;49.188;-0.374;2022-12-04T01:32:45;101135.00;;;3.28;nan
48862;BME280;34681;49.188;-0.374;2022-12-04T01:35:11;101133.94;;;3.31;nan
48862;BME280;34681;49.188;-0.374;2022-12-04T01:37:36;101135.44;;;3.36;nan
48862;BME280;34681;49.188;-0.374;2022-12-04T01:40:02;101136.56;;;3.48;nan
48862;BME280;34681;49.188;-0.374;2022-12-04T01:42:28;101127.38;;;3.51;nan
48862;BME280;34681;49.188;-0.374;2022-12-04T01:50:44;101118.25;;;4.53;nan
48862;BME280;34681;49.188;-0.374;2022-12-04T01:53:12;101117.19;;;3.84;nan
48862;BME280;34681;49.188;-0.374;2022-12-04T01:55:38;101109.66;;;3.75;nan
48862;BME280;34681;49.188;-0.374;2022-12-04T01:58:05;101112.50;;;3.58;nan
48862;BME280;34681;49.188;-0.374;2022-12-04T02:00:31;101114.34;;;3.57;nan
48862;BME280;34681;49.188;-0.374;2022-12-04T02:02:57;101108.78;;;3.75;nan
48862;BME280;34681;49.188;-0.374;2022-12-04T02:05:22;101116.63;;;3.93;nan
48862;BME280;34681;49.188;-0.374;2022-12-04T02:07:50;101105.56;;;3.38;nan
48862;BME280;34681;49.188;-0.374;2022-12-04T02:10:16;101101.78;;;3.26;nan
48862;BME280;34681;49.188;-0.374;2022-12-04T02:13:09;101105.25;;;3.28;nan
48862;BME280;34681;49.188;-0.374;2022-12-04T02:15:44;101104.56;;;3.55;nan
48862;BME280;34681;49.188;-0.374;2022-12-04T02:21:21;101109.44;;;3.78;nan
48862;BME280;34681;49.188;-0.374;2022-12-04T02:26:46;101099.94;;;3.71;nan
48862;BME280;34681;49.188;-0.374;2022-12-04T02:32:21;101106.03;;;3.60;nan
48862;BME280;34681;49.188;-0.374;2022-12-04T02:34:57;101098.59;;;3.64;nan
48862;BME280;34681;49.188;-0.374;2022-12-04T02:37:36;101102.34;;;3.61;nan
48862;BME280;34681;49.188;-0.374;2022-12-04T02:40:09;101101.22;;;3.80;nan
48862;BME280;34681;49.188;-0.374;2022-12-04T02:42:46;101102.81;;;3.54;nan
48862;BME280;34681;49.188;-0.374;2022-12-04T02:45:20;101096.53;;;3.53;nan
48862;BME280;34681;49.188;-0.374;2022-12-04T02:47:48;101091.69;;;3.44;nan
48862;BME280;34681;49.188;-0.374;2022-12-04T02:50:17;101089.94;;;3.73;nan
48862;BME280;34681;49.188;-0.374;2022-12-04T02:52:49;101088.50;;;3.82;nan
48862;BME280;34681;49.188;-0.374;2022-12-04T02:55:28;101087.75;;;3.64;nan
48862;BME280;34681;49.188;-0.374;2022-12-04T02:57:58;101081.16;;;3.98;nan
48862;BME280;34681;49.188;-0.374;2022-12-04T03:00:24;101085.88;;;4.09;nan
48862;BME280;34681;49.188;-0.374;2022-12-04T03:02:55;101088.88;;;4.18;nan
48862;BME280;34681;49.188;-0.374;2022-12-04T03:05:37;101082.00;;;4.27;nan
48862;BME280;34681;49.188;-0.374;2022-12-04T03:08:07;101085.25;;;4.46;nan
48862;BME280;34681;49.188;-0.374;2022-12-04T03:10:42;101086.06;;;4.20;nan
48862;BME280;34681;49.188;-0.374;2022-12-04T03:13:17;101086.84;;;4.08;nan
48862;BME280;34681;49.188;-0.374;2022-12-04T03:15:50;101094.88;;;3.81;nan
48862;BME280;34681;49.188;-0.374;2022-12-04T03:21:06;101085.59;;;3.41;nan
48862;BME280;34681;49.188;-0.374;2022-12-04T03:23:42;101081.53;;;3.33;nan
48862;BME280;34681;49.188;-0.374;2022-12-04T03:28:58;101084.19;;;3.19;nan
48862;BME280;34681;49.188;-0.374;2022-12-04T03:34:02;101068.47;;;3.26;nan
48862;BME280;34681;49.188;-0.374;2022-12-04T03:36:35;101071.25;;;3.24;nan
48862;BME280;34681;49.188;-0.374;2022-12-04T03:39:19;101067.13;;;3.33;nan
48862;BME280;34681;49.188;-0.374;2022-12-04T03:42:03;101072.72;;;3.30;nan
48862;BME280;34681;49.188;-0.374;2022-12-04T03:44:43;101065.59;;;3.13;nan
48862;BME280;34681;49.188;-0.374;2022-12-04T03:47:17;101061.69;;;3.77;nan
48862;BME280;34681;49.188;-0.374;2022-12-04T03:49:57;101060.03;;;3.60;nan
48862;BME280;34681;49.188;-0.374;2022-12-04T03:52:40;101068.56;;;3.38;nan
48862;BME280;34681;49.188;-0.374;2022-12-04T03:55:16;101064.13;;;3.23;nan
48862;BME280;34681;49.188;-0.374;2022-12-04T03:57:46;101057.47;;;2.99;nan
48862;BME280;34681;49.188;-0.374;2022-12-04T04:00:17;101055.31;;;3.20;nan
48862;BME280;34681;49.188;-0.374;2022-12-04T04:02:47;101063.31;;;3.21;nan
48862;BME280;34681;49.188;-0.374;2022-12-04T04:05:15;101063.34;;;3.65;nan
48862;BME280;34681;49.188;-0.374;2022-12-04T04:07:50;101056.19;;;3.64;nan
48862;BME280;34681;49.188;-0.374;2022-12-04T04:10:23;101053.84;;;3.58;nan
48862;BME280;34681;49.188;-0.374;2022-12-04T04:13:01;101059.28;;;3.73;nan
48862;BME280;34681;49.188;-0.374;2022-12-04T04:15:52;101052.91;;;4.02;nan
48862;BME280;34681;49.188;-0.374;2022-12-04T04:18:38;101048.44;;;3.58;nan
48862;BME280;34681;49.188;-0.374;2022-12-04T04:21:29;101049.47;;;3.42;nan
48862;BME280;34681;49.188;-0.374;2022-12-04T04:24:29;101052.22;;;3.70;nan
48862;BME280;34681;49.188;-0.374;2022-12-04T04:26:54;101054.81;;;3.57;nan
48862;BME280;34681;49.188;-0.374;2022-12-04T04:29:22;101060.06;;;3.30;nan
48862;BME280;34681;49.188;-0.374;2022-12-04T04:31:57;101042.16;;;3.58;nan
48862;BME280;34681;49.188;-0.374;2022-12-04T04:39:54;101061.59;;;3.64;nan
48862;BME280;34681;49.188;-0.374;2022-12-04T04:42:42;101053.06;;;3.12;nan
48862;BME280;34681;49.188;-0.374;2022-12-04T04:47:49;101040.16;;;3.17;nan
48862;BME280;34681;49.188;-0.374;2022-12-04T04:50:17;101039.16;;;3.48;nan
48862;BME280;34681;49.188;-0.374;2022-12-04T04:52:50;101041.47;;;3.10;nan
48862;BME280;34681;49.188;-0.374;2022-12-04T04:55:17;101033.81;;;3.02;nan
48862;BME280;34681;49.188;-0.374;2022-12-04T04:57:44;101028.16;;;3.21;nan
48862;BME280;34681;49.188;-0.374;2022-12-04T05:00:12;101035.69;;;3.16;nan
48862;BME280;34681;49.188;-0.374;2022-12-04T05:02:38;101038.66;;;3.42;nan
48862;BME280;34681;49.188;-0.374;2022-12-04T05:05:05;101028.22;;;3.50;nan
48862;BME280;34681;49.188;-0.374;2022-12-04T05:07:31;101034.16;;;3.26;nan
48862;BME280;34681;49.188;-0.374;2022-12-04T05:09:56;101033.16;;;3.43;nan
48862;BME280;34681;49.188;-0.374;2022-12-04T05:12:21;101032.53;;;3.24;nan
48862;BME280;34681;49.188;-0.374;2022-12-04T05:14:47;101036.44;;;3.48;nan
48862;BME280;34681;49.188;-0.374;2022-12-04T05:17:13;101043.00;;;3.44;nan
48862;BME280;34681;49.188;-0.374;2022-12-04T05:19:39;101039.91;;;3.50;nan
48862;BME280;34681;49.188;-0.374;2022-12-04T05:22:24;101036.53;;;3.61;nan
48862;BME280;34681;49.188;-0.374;2022-12-04T05:24:50;101041.84;;;3.48;nan
48862;BME280;34681;49.188;-0.374;2022-12-04T05:27:15;101035.44;;;3.05;nan
48862;BME280;34681;49.188;-0.374;2022-12-04T05:29:41;101036.56;;;3.31;nan
48862;BME280;34681;49.188;-0.374;2022-12-04T05:32:06;101033.34;;;3.40;nan
48862;BME280;34681;49.188;-0.374;2022-12-04T05:34:32;101032.66;;;3.51;nan
48862;BME280;34681;49.188;-0.374;2022-12-04T05:36:57;101034.03;;;3.86;nan
48862;BME280;34681;49.188;-0.374;2022-12-04T05:39:23;101023.50;;;3.96;nan
48862;BME280;34681;49.188;-0.374;2022-12-04T05:41:48;101025.75;;;3.75;nan
48862;BME280;34681;49.188;-0.374;2022-12-04T05:44:13;101031.44;;;3.56;nan
48862;BME280;34681;49.188;-0.374;2022-12-04T05:46:39;101025.91;;;3.44;nan
48862;BME280;34681;49.188;-0.374;2022-12-04T05:49:04;101022.28;;;3.29;nan
48862;BME280;34681;49.188;-0.374;2022-12-04T05:51:29;101029.69;;;3.11;nan
48862;BME280;34681;49.188;-0.374;2022-12-04T05:53:55;101025.66;;;3.18;nan
48862;BME280;34681;49.188;-0.374;2022-12-04T05:56:20;101033.63;;;3.05;nan
48862;BME280;34681;49.188;-0.374;2022-12-04T05:58:46;101031.56;;;3.39;nan
48862;BME280;34681;49.188;-0.374;2022-12-04T06:01:18;101040.03;;;3.63;nan
48862;BME280;34681;49.188;-0.374;2022-12-04T06:03:44;101034.31;;;3.53;nan
48862;BME280;34681;49.188;-0.374;2022-12-04T06:06:17;101041.47;;;3.54;nan
48862;BME280;34681;49.188;-0.374;2022-12-04T06:08:43;101043.66;;;3.33;nan
48862;BME280;34681;49.188;-0.374;2022-12-04T06:11:16;101039.84;;;3.80;nan
48862;BME280;34681;49.188;-0.374;2022-12-04T06:13:43;101037.53;;;3.74;nan
48862;BME280;34681;49.188;-0.374;2022-12-04T06:16:16;101033.53;;;3.51;nan
48862;BME280;34681;49.188;-0.374;2022-12-04T06:18:42;101035.38;;;3.51;nan
48862;BME280;34681;49.188;-0.374;2022-12-04T06:21:08;101042.31;;;3.41;nan
48862;BME280;34681;49.188;-0.374;2022-12-04T06:23:35;101038.16;;;3.35;nan
48862;BME280;34681;49.188;-0.374;2022-12-04T06:26:05;101042.16;;;3.72;nan
48862;BME280;34681;49.188;-0.374;2022-12-04T06:28:30;101043.28;;;3.40;nan
48862;BME280;34681;49.188;-0.374;2022-12-04T06:31:00;101046.00;;;3.40;nan
48862;BME280;34681;49.188;-0.374;2022-12-04T06:33:26;101050.53;;;3.53;nan
48862;BME280;34681;49.188;-0.374;2022-12-04T06:36:02;101046.50;;;3.60;nan
48862;BME280;34681;49.188;-0.374;2022-12-04T06:38:29;101061.09;;;3.58;nan
48862;BME280;34681;49.188;-0.374;2022-12-04T06:40:54;101060.25;;;3.86;nan
48862;BME280;34681;49.188;-0.374;2022-12-04T06:43:20;101061.88;;;4.03;nan
48862;BME280;34681;49.188;-0.374;2022-12-04T06:45:46;101061.47;;;3.80;nan
48862;BME280;34681;49.188;-0.374;2022-12-04T06:48:13;101049.72;;;3.81;nan
48862;BME280;34681;49.188;-0.374;2022-12-04T06:50:38;101054.16;;;3.68;nan
48862;BME280;34681;49.188;-0.374;2022-12-04T06:53:03;101047.88;;;3.67;nan
48862;BME280;34681;49.188;-0.374;2022-12-04T06:55:29;101056.38;;;3.76;nan
48862;BME280;34681;49.188;-0.374;2022-12-04T06:57:54;101045.94;;;3.98;nan
48862;BME280;34681;49.188;-0.374;2022-12-04T07:00:19;101052.69;;;4.05;nan
48862;BME280;34681;49.188;-0.374;2022-12-04T07:02:45;101053.84;;;3.87;nan
48862;BME280;34681;49.188;-0.374;2022-12-04T07:05:10;101053.75;;;3.88;nan
48862;BME280;34681;49.188;-0.374;2022-12-04T07:07:35;101062.25;;;3.97;nan
48862;BME280;34681;49.188;-0.374;2022-12-04T07:10:02;101064.59;;;4.03;nan
48862;BME280;34681;49.188;-0.374;2022-12-04T07:12:28;101065.28;;;4.06;nan
48862;BME280;34681;49.188;-0.374;2022-12-04T07:14:53;101068.25;;;3.87;nan
48862;BME280;34681;49.188;-0.374;2022-12-04T07:17:19;101062.38;;;3.66;nan
48862;BME280;34681;49.188;-0.374;2022-12-04T07:19:44;101058.88;;;3.79;nan
48862;BME280;34681;49.188;-0.374;2022-12-04T07:22:09;101068.75;;;3.65;nan
48862;BME280;34681;49.188;-0.374;2022-12-04T07:24:35;101070.31;;;3.84;nan
48862;BME280;34681;49.188;-0.374;2022-12-04T07:27:02;101068.19;;;3.89;nan
48862;BME280;34681;49.188;-0.374;2022-12-04T07:29:27;101071.06;;;4.29;nan
48862;BME280;34681;49.188;-0.374;2022-12-04T07:31:53;101061.13;;;4.15;nan
48862;BME280;34681;49.188;-0.374;2022-12-04T07:34:18;101060.81;;;3.77;nan
48862;BME280;34681;49.188;-0.374;2022-12-04T07:36:43;101068.66;;;3.95;nan
48862;BME280;34681;49.188;-0.374;2022-12-04T07:39:09;101067.78;;;4.09;nan
48862;BME280;34681;49.188;-0.374;2022-12-04T07:41:34;101069.34;;;3.99;nan
48862;BME280;34681;49.188;-0.374;2022-12-04T07:43:59;101077.94;;;3.91;nan
48862;BME280;34681;49.188;-0.374;2022-12-04T07:46:26;101067.91;;;4.08;nan
48862;BME280;34681;49.188;-0.374;2022-12-04T07:48:54;101073.41;;;4.06;nan
48862;BME280;34681;49.188;-0.374;2022-12-04T07:51:22;101074.25;;;4.21;nan
48862;BME280;34681;49.188;-0.374;2022-12-04T07:53:49;101083.16;;;4.09;nan
48862;BME280;34681;49.188;-0.374;2022-12-04T07:56:15;101085.88;;;3.94;nan
48862;BME280;34681;49.188;-0.374;2022-12-04T07:58:41;101083.53;;;3.88;nan
48862;BME280;34681;49.188;-0.374;2022-12-04T08:01:17;101096.19;;;3.88;nan
48862;BME280;34681;49.188;-0.374;2022-12-04T08:03:44;101085.59;;;3.99;nan
48862;BME280;34681;49.188;-0.374;2022-12-04T08:06:10;101089.91;;;3.87;nan
48862;BME280;34681;49.188;-0.374;2022-12-04T08:08:35;101087.63;;;3.81;nan
48862;BME280;34681;49.188;-0.374;2022-12-04T08:11:09;101088.41;;;3.98;nan
48862;BME280;34681;49.188;-0.374;2022-12-04T08:13:35;101088.97;;;4.03;nan
48862;BME280;34681;49.188;-0.374;2022-12-04T08:16:02;101089.44;;;3.95;nan
48862;BME280;34681;49.188;-0.374;2022-12-04T08:18:28;101090.72;;;4.18;nan
48862;BME280;34681;49.188;-0.374;2022-12-04T08:20:53;101092.28;;;4.22;nan
48862;BME280;34681;49.188;-0.374;2022-12-04T08:23:18;101089.84;;;3.89;nan
48862;BME280;34681;49.188;-0.374;2022-12-04T08:25:43;101092.75;;;4.00;nan
48862;BME280;34681;49.188;-0.374;2022-12-04T08:28:09;101090.81;;;4.31;nan
48862;BME280;34681;49.188;-0.374;2022-12-04T08:30:35;101091.19;;;4.10;nan
48862;BME280;34681;49.188;-0.374;2022-12-04T08:33:01;101095.34;;;4.02;nan
48862;BME280;34681;49.188;-0.374;2022-12-04T08:35:27;101103.16;;;4.49;nan
48862;BME280;34681;49.188;-0.374;2022-12-04T08:37:52;101098.25;;;4.41;nan
48862;BME280;34681;49.188;-0.374;2022-12-04T08:40:18;101103.53;;;4.57;nan
48862;BME280;34681;49.188;-0.374;2022-12-04T08:42:43;101109.19;;;4.81;nan
48862;BME280;34681;49.188;-0.374;2022-12-04T08:45:09;101105.38;;;4.98;nan
48862;BME280;34681;49.188;-0.374;2022-12-04T08:47:34;101105.06;;;5.02;nan
48862;BME280;34681;49.188;-0.374;2022-12-04T08:50:00;101113.84;;;5.46;nan
48862;BME280;34681;49.188;-0.374;2022-12-04T08:52:25;101107.00;;;5.00;nan
48862;BME280;34681;49.188;-0.374;2022-12-04T08:54:50;101118.56;;;4.48;nan
48862;BME280;34681;49.188;-0.374;2022-12-04T08:57:16;101114.78;;;4.51;nan
48862;BME280;34681;49.188;-0.374;2022-12-04T08:59:41;101113.44;;;4.15;nan
48862;BME280;34681;49.188;-0.374;2022-12-04T09:02:09;101106.97;;;3.89;nan
48862;BME280;34681;49.188;-0.374;2022-12-04T09:04:34;101118.66;;;4.04;nan
48862;BME280;34681;49.188;-0.374;2022-12-04T09:07:00;101113.63;;;4.12;nan
48862;BME280;34681;49.188;-0.374;2022-12-04T09:09:25;101119.91;;;4.27;nan
48862;BME280;34681;49.188;-0.374;2022-12-04T09:11:50;101120.22;;;4.22;nan
48862;BME280;34681;49.188;-0.374;2022-12-04T09:14:16;101123.06;;;4.62;nan
48862;BME280;34681;49.188;-0.374;2022-12-04T09:16:43;101108.50;;;4.77;nan
48862;BME280;34681;49.188;-0.374;2022-12-04T09:19:09;101112.63;;;4.97;nan
48862;BME280;34681;49.188;-0.374;2022-12-04T09:21:34;101113.63;;;4.55;nan
48862;BME280;34681;49.188;-0.374;2022-12-04T09:24:00;101108.88;;;4.30;nan
48862;BME280;34681;49.188;-0.374;2022-12-04T09:26:28;101109.19;;;4.40;nan
48862;BME280;34681;49.188;-0.374;2022-12-04T09:28:54;101115.16;;;4.45;nan
48862;BME280;34681;49.188;-0.374;2022-12-04T09:31:21;101118.78;;;4.31;nan
48862;BME280;34681;49.188;-0.374;2022-12-04T09:33:46;101122.44;;;4.02;nan
48862;BME280;34681;49.188;-0.374;2022-12-04T09:36:12;101130.53;;;4.44;nan
48862;BME280;34681;49.188;-0.374;2022-12-04T09:38:42;101124.69;;;4.23;nan
48862;BME280;34681;49.188;-0.374;2022-12-04T09:41:26;101132.69;;;4.25;nan
48862;BME280;34681;49.188;-0.374;2022-12-04T09:49:08;101134.31;;;4.13;nan
48862;BME280;34681;49.188;-0.374;2022-12-04T09:51:36;101131.72;;;4.12;nan
48862;BME280;34681;49.188;-0.374;2022-12-04T09:54:13;101130.75;;;4.13;nan
48862;BME280;34681;49.188;-0.374;2022-12-04T09:56:39;101129.59;;;4.31;nan
48862;BME280;34681;49.188;-0.374;2022-12-04T10:01:46;101147.56;;;4.75;nan
48862;BME280;34681;49.188;-0.374;2022-12-04T10:04:12;101149.28;;;4.76;nan
48862;BME280;34681;49.188;-0.374;2022-12-04T10:07:14;101141.53;;;4.84;nan
48862;BME280;34681;49.188;-0.374;2022-12-04T10:09:59;101141.16;;;4.62;nan
48862;BME280;34681;49.188;-0.374;2022-12-04T10:21:36;101137.69;;;4.74;nan
48862;BME280;34681;49.188;-0.374;2022-12-04T10:26:36;101134.00;;;4.61;nan
48862;BME280;34681;49.188;-0.374;2022-12-04T10:29:06;101139.81;;;4.55;nan
48862;BME280;34681;49.188;-0.374;2022-12-04T10:31:34;101148.16;;;4.37;nan
48862;BME280;34681;49.188;-0.374;2022-12-04T10:34:15;101140.22;;;4.20;nan
48862;BME280;34681;49.188;-0.374;2022-12-04T10:36:45;101148.56;;;4.31;nan
48862;BME280;34681;49.188;-0.374;2022-12-04T10:39:23;101146.59;;;4.62;nan
48862;BME280;34681;49.188;-0.374;2022-12-04T10:44:19;101138.69;;;4.30;nan
48862;BME280;34681;49.188;-0.374;2022-12-04T10:46:44;101135.03;;;4.31;nan
48862;BME280;34681;49.188;-0.374;2022-12-04T10:49:26;101134.31;;;4.28;nan
48862;BME280;34681;49.188;-0.374;2022-12-04T10:51:52;101135.47;;;4.52;nan
48862;BME280;34681;49.188;-0.374;2022-12-04T10:56:56;101149.88;;;4.67;nan
48862;BME280;34681;49.188;-0.374;2022-12-04T10:59:22;101138.72;;;4.71;nan
48862;BME280;34681;49.188;-0.374;2022-12-04T11:01:49;101141.75;;;4.53;nan
48862;BME280;34681;49.188;-0.374;2022-12-04T11:04:27;101129.53;;;4.88;nan
48862;BME280;34681;49.188;-0.374;2022-12-04T11:07:04;101129.56;;;5.01;nan
48862;BME280;34681;49.188;-0.374;2022-12-04T11:09:32;101127.56;;;4.90;nan
48862;BME280;34681;49.188;-0.374;2022-12-04T11:12:14;101129.03;;;5.35;nan
48862;BME280;34681;49.188;-0.374;2022-12-04T11:14:41;101139.66;;;5.66;nan
48862;BME280;34681;49.188;-0.374;2022-12-04T11:17:06;101136.38;;;5.48;nan
48862;BME280;34681;49.188;-0.374;2022-12-04T11:19:34;101132.50;;;5.38;nan
48862;BME280;34681;49.188;-0.374;2022-12-04T11:22:13;101120.72;;;5.91;nan
48862;BME280;34681;49.188;-0.374;2022-12-04T11:24:40;101117.72;;;5.69;nan
48862;BME280;34681;49.188;-0.374;2022-12-04T11:27:18;101120.31;;;5.18;nan
48862;BME280;34681;49.188;-0.374;2022-12-04T11:29:45;101113.25;;;4.88;nan
48862;BME280;34681;49.188;-0.374;2022-12-04T11:32:21;101117.38;;;4.94;nan
48862;BME280;34681;49.188;-0.374;2022-12-04T11:34:48;101110.44;;;4.90;nan
48862;BME280;34681;49.188;-0.374;2022-12-04T11:37:27;101113.69;;;4.54;nan
48862;BME280;34681;49.188;-0.374;2022-12-04T11:39:54;101119.06;;;4.41;nan
48862;BME280;34681;49.188;-0.374;2022-12-04T11:42:25;101116.38;;;4.82;nan
48862;BME280;34681;49.188;-0.374;2022-12-04T11:44:54;101113.47;;;4.71;nan
48862;BME280;34681;49.188;-0.374;2022-12-04T11:47:22;101124.59;;;4.81;nan
48862;BME280;34681;49.188;-0.374;2022-12-04T11:50:11;101116.25;;;4.84;nan
48862;BME280;34681;49.188;-0.374;2022-12-04T12:00:43;101107.72;;;4.48;nan
48862;BME280;34681;49.188;-0.374;2022-12-04T12:03:32;101098.16;;;4.70;nan
48862;BME280;34681;49.188;-0.374;2022-12-04T12:26:32;101096.31;;;4.85;nan
48862;BME280;34681;49.188;-0.374;2022-12-04T12:29:16;101107.81;;;5.15;nan
48862;BME280;34681;49.188;-0.374;2022-12-04T12:34:43;101116.16;;;4.85;nan
48862;BME280;34681;49.188;-0.374;2022-12-04T12:42:20;101105.78;;;4.92;nan
48862;BME280;34681;49.188;-0.374;2022-12-04T12:44:56;101111.19;;;4.92;nan
48862;BME280;34681;49.188;-0.374;2022-12-04T12:47:28;101115.59;;;4.80;nan
48862;BME280;34681;49.188;-0.374;2022-12-04T12:52:56;101109.47;;;4.91;nan
48862;BME280;34681;49.188;-0.374;2022-12-04T12:55:25;101096.44;;;4.69;nan
48862;BME280;34681;49.188;-0.374;2022-12-04T12:58:14;101111.31;;;4.90;nan
48862;BME280;34681;49.188;-0.374;2022-12-04T13:01:14;101106.63;;;5.19;nan
48862;BME280;34681;49.188;-0.374;2022-12-04T13:03:53;101105.56;;;4.95;nan
48862;BME280;34681;49.188;-0.374;2022-12-04T13:06:27;101108.34;;;4.81;nan
48862;BME280;34681;49.188;-0.374;2022-12-04T13:09:08;101107.50;;;4.66;nan
48862;BME280;34681;49.188;-0.374;2022-12-04T13:11:36;101108.50;;;4.77;nan
48862;BME280;34681;49.188;-0.374;2022-12-04T13:14:03;101105.88;;;4.90;nan
48862;BME280;34681;49.188;-0.374;2022-12-04T13:19:20;101103.31;;;4.74;nan
48862;BME280;34681;49.188;-0.374;2022-12-04T13:25:04;101098.03;;;4.86;nan
48862;BME280;34681;49.188;-0.374;2022-12-04T13:30:30;101097.00;;;4.88;nan
48862;BME280;34681;49.188;-0.374;2022-12-04T13:41:25;101104.53;;;4.83;nan
48862;BME280;34681;49.188;-0.374;2022-12-04T13:43:52;101099.88;;;5.12;nan
48862;BME280;34681;49.188;-0.374;2022-12-04T13:46:32;101093.06;;;5.19;nan
48862;BME280;34681;49.188;-0.374;2022-12-04T13:51:38;101084.78;;;5.08;nan
48862;BME280;34681;49.188;-0.374;2022-12-04T13:56:39;101075.63;;;5.23;nan
48862;BME280;34681;49.188;-0.374;2022-12-04T13:59:37;101082.09;;;5.21;nan
48862;BME280;34681;49.188;-0.374;2022-12-04T14:04:52;101077.13;;;5.27;nan
48862;BME280;34681;49.188;-0.374;2022-12-04T14:07:25;101076.88;;;5.05;nan
48862;BME280;34681;49.188;-0.374;2022-12-04T14:09:53;101080.34;;;5.07;nan
48862;BME280;34681;49.188;-0.374;2022-12-04T14:12:26;101088.84;;;4.88;nan
48862;BME280;34681;49.188;-0.374;2022-12-04T14:14:56;101084.28;;;4.89;nan
48862;BME280;34681;49.188;-0.374;2022-12-04T14:17:37;101090.47;;;4.91;nan
48862;BME280;34681;49.188;-0.374;2022-12-04T14:20:20;101089.47;;;5.06;nan
48862;BME280;34681;49.188;-0.374;2022-12-04T14:22:47;101093.13;;;5.45;nan
48862;BME280;34681;49.188;-0.374;2022-12-04T14:27:43;101092.06;;;5.47;nan
48862;BME280;34681;49.188;-0.374;2022-12-04T14:30:28;101094.38;;;5.14;nan
48862;BME280;34681;49.188;-0.374;2022-12-04T14:33:06;101094.59;;;4.96;nan
48862;BME280;34681;49.188;-0.374;2022-12-04T14:35:32;101099.34;;;5.47;nan
48862;BME280;34681;49.188;-0.374;2022-12-04T14:38:00;101100.03;;;5.88;nan
48862;BME280;34681;49.188;-0.374;2022-12-04T14:40:34;101103.38;;;5.67;nan
48862;BME280;34681;49.188;-0.374;2022-12-04T14:43:00;101112.59;;;5.51;nan
48862;BME280;34681;49.188;-0.374;2022-12-04T14:45:44;101112.03;;;5.46;nan
48862;BME280;34681;49.188;-0.374;2022-12-04T14:53:50;101134.09;;;5.15;nan
48862;BME280;34681;49.188;-0.374;2022-12-04T14:56:46;101141.25;;;4.89;nan
48862;BME280;34681;49.188;-0.374;2022-12-04T14:59:18;101142.38;;;4.99;nan
48862;BME280;34681;49.188;-0.374;2022-12-04T15:01:45;101135.59;;;5.19;nan
48862;BME280;34681;49.188;-0.374;2022-12-04T15:04:21;101144.22;;;5.25;nan
48862;BME280;34681;49.188;-0.374;2022-12-04T15:06:48;101141.00;;;5.06;nan
48862;BME280;34681;49.188;-0.374;2022-12-04T15:09:21;101140.88;;;5.34;nan
48862;BME280;34681;49.188;-0.374;2022-12-04T15:12:16;101154.47;;;4.93;nan
48862;BME280;34681;49.188;-0.374;2022-12-04T15:18:03;101155.00;;;4.71;nan
48862;BME280;34681;49.188;-0.374;2022-12-04T15:20:56;101172.59;;;4.93;nan
48862;BME280;34681;49.188;-0.374;2022-12-04T15:25:52;101166.91;;;4.83;nan
48862;BME280;34681;49.188;-0.374;2022-12-04T15:28:49;101171.19;;;5.14;nan
48862;BME280;34681;49.188;-0.374;2022-12-04T15:31:19;101175.69;;;5.28;nan
48862;BME280;34681;49.188;-0.374;2022-12-04T15:33:48;101173.84;;;5.28;nan
48862;BME280;34681;49.188;-0.374;2022-12-04T15:36:25;101180.19;;;5.42;nan
48862;BME280;34681;49.188;-0.374;2022-12-04T15:38:54;101176.50;;;5.43;nan